createdAt,value
2023-01-29T00:03:37.038Z,0.08
2023-01-29T00:08:40.867Z,0.04
2023-01-29T00:13:44.532Z,0.06
2023-01-29T00:18:48.248Z,0.08
2023-01-29T00:37:50.700Z,0.33
2023-01-29T00:43:44.182Z,0.29
2023-01-29T00:48:48.142Z,0.31
2023-01-29T01:02:04.342Z,0.34
2023-01-29T01:07:08.730Z,0.38
2023-01-29T01:12:38.479Z,0.47
2023-01-29T01:17:42.149Z,0.46
2023-01-29T01:23:10.889Z,0.48
2023-01-29T01:29:10.929Z,0.42
2023-01-29T01:41:59.765Z,0.37
2023-01-29T01:48:25.231Z,0.35
2023-01-29T02:00:49.109Z,0.35
2023-01-29T02:06:16.065Z,0.35
2023-01-29T02:11:21.175Z,0.41
2023-01-29T02:16:50.792Z,0.43
2023-01-29T02:22:47.771Z,0.40
2023-01-29T02:35:27.584Z,0.37
2023-01-29T02:40:54.567Z,0.37
2023-01-29T02:46:20.301Z,0.38
2023-01-29T02:52:02.823Z,0.38
2023-01-29T02:58:23.407Z,0.36
2023-01-29T03:03:39.983Z,0.36
2023-01-29T03:09:08.358Z,0.34
2023-01-29T03:14:57.061Z,0.27
2023-01-29T03:20:04.053Z,0.28
2023-01-29T03:33:18.894Z,0.23
2023-01-29T03:38:22.620Z,0.23
2023-01-29T03:44:19.600Z,0.21
2023-01-29T03:50:00.699Z,0.19
2023-01-29T03:55:50.079Z,0.17
2023-01-29T04:01:02.857Z,0.15
2023-01-29T04:07:01.138Z,0.19
2023-01-29T04:12:15.185Z,0.21
2023-01-29T04:17:33.447Z,0.18
2023-01-29T04:22:40.036Z,0.15
2023-01-29T04:28:28.832Z,0.11
2023-01-29T04:34:04.399Z,0.09
2023-01-29T04:39:41.387Z,0.07
2023-01-29T04:45:33.961Z,0.07
2023-01-29T04:51:25.434Z,0.10
2023-01-29T04:57:04.251Z,0.07
2023-01-29T05:02:12.685Z,0.06
2023-01-29T05:07:19.264Z,0.07
2023-01-29T05:19:43.453Z,0.11
2023-01-29T05:25:43.996Z,0.08
2023-01-29T05:30:55.137Z,0.03
2023-01-29T05:36:55.427Z,0.07
2023-01-29T05:42:05.059Z,0.15
2023-01-29T05:47:08.720Z,0.16
2023-01-29T05:52:37.820Z,0.20
2023-01-29T05:58:20.258Z,0.18
2023-01-29T06:03:24.039Z,0.14
2023-01-29T06:08:46.560Z,0.16
2023-01-29T06:14:47.934Z,0.20
2023-01-29T06:19:55.016Z,0.23
2023-01-29T06:32:04.038Z,0.22
2023-01-29T06:38:02.831Z,0.24
2023-01-29T06:43:06.656Z,0.23
2023-01-29T06:48:12.090Z,0.22
2023-01-29T06:53:19.194Z,0.25
2023-01-29T06:58:26.526Z,0.21
2023-01-29T07:03:32.117Z,0.22
2023-01-29T07:08:41.484Z,0.21
2023-01-29T07:13:49.938Z,0.24
2023-01-29T07:19:18.800Z,0.29
2023-01-29T07:25:24.016Z,0.32
2023-01-29T07:30:28.457Z,0.35
2023-01-29T07:35:36.949Z,0.41
2023-01-29T07:47:44.057Z,0.44
2023-01-29T07:53:26.108Z,0.42
2023-01-29T07:59:45.723Z,0.48
2023-01-29T08:04:49.490Z,0.60
2023-01-29T08:09:53.989Z,0.66
2023-01-29T08:14:57.904Z,0.67
2023-01-29T08:24:41.549Z,0.78
2023-01-29T08:29:53.332Z,0.78
2023-01-29T08:49:02.679Z,0.76
2023-01-29T09:05:50.914Z,0.99
2023-01-29T09:10:54.857Z,1.05
2023-01-29T09:16:03.514Z,1.14
2023-01-29T09:29:18.219Z,1.15
2023-01-29T09:34:21.841Z,1.20
2023-01-29T09:47:56.130Z,1.25
2023-01-29T09:53:29.865Z,1.26
2023-01-29T09:59:01.644Z,1.36
2023-01-29T10:04:54.828Z,1.51
2023-01-29T10:11:09.296Z,1.54
2023-01-29T10:17:00.721Z,1.60
2023-01-29T10:23:05.437Z,1.66
2023-01-29T10:35:39.787Z,1.44
2023-01-29T10:41:19.674Z,1.51
2023-01-29T10:47:01.711Z,1.56
2023-01-29T10:52:26.439Z,1.54
2023-01-29T10:58:08.456Z,1.57
2023-01-29T11:03:29.540Z,1.69
2023-01-29T11:08:58.269Z,1.69
2023-01-29T11:14:12.481Z,1.64
2023-01-29T11:19:17.494Z,1.65
2023-01-29T11:24:21.979Z,1.65
2023-01-29T11:29:48.705Z,1.71
2023-01-29T11:43:14.376Z,1.72
2023-01-29T11:48:27.515Z,1.80
2023-01-29T12:10:41.871Z,1.91
2023-01-29T12:24:23.071Z,1.81
2023-01-29T12:29:57.351Z,1.80
2023-01-29T12:42:18.390Z,1.77
2023-01-29T12:48:02.253Z,1.82
2023-01-29T12:53:55.035Z,1.93
2023-01-29T13:07:46.485Z,2.03
2023-01-29T13:27:48.059Z,2.00
2023-01-29T13:34:11.597Z,2.03
2023-01-29T13:39:29.899Z,2.03
2023-01-29T13:44:39.492Z,2.02
2023-01-29T13:49:57.107Z,2.00
2023-01-29T13:55:09.711Z,1.99
2023-01-29T14:00:38.821Z,1.96
2023-01-29T14:06:39.746Z,1.95
2023-01-29T14:12:39.831Z,1.92
2023-01-29T14:18:19.011Z,1.94
2023-01-29T14:23:50.271Z,1.87
2023-01-29T14:29:25.506Z,1.84
2023-01-29T14:34:52.024Z,1.80
2023-01-29T14:40:55.712Z,1.83
2023-01-29T15:02:38.398Z,1.76
2023-01-29T15:07:55.397Z,1.75
2023-01-29T15:13:56.166Z,1.77
2023-01-29T15:19:26.906Z,1.80
2023-01-29T15:31:21.300Z,1.85
2023-01-29T15:36:30.307Z,1.83
2023-01-29T15:51:58.276Z,1.82
2023-01-29T15:57:06.721Z,1.87
2023-01-29T16:02:35.396Z,1.89
2023-01-29T16:07:40.403Z,1.93
2023-01-29T16:12:47.600Z,1.93
2023-01-29T16:17:55.148Z,1.91
2023-01-29T16:23:00.984Z,1.92
2023-01-29T16:28:07.754Z,1.89
2023-01-29T16:33:17.745Z,1.88
2023-01-29T16:45:43.882Z,1.92
2023-01-29T16:51:13.929Z,1.86
2023-01-29T16:56:45.708Z,1.88
2023-01-29T17:01:50.272Z,1.88
2023-01-29T17:07:02.456Z,1.87
2023-01-29T17:12:17.027Z,1.87
2023-01-29T17:17:20.512Z,1.88
2023-01-29T17:22:23.969Z,1.85
2023-01-29T17:34:35.003Z,1.85
2023-01-29T17:39:38.980Z,1.87
2023-01-29T17:44:44.186Z,1.90
2023-01-29T17:51:05.684Z,1.90
2023-01-29T17:56:35.340Z,1.85
2023-01-29T18:02:29.687Z,1.88
2023-01-29T18:07:33.845Z,1.81
2023-01-29T18:12:57.144Z,1.84
2023-01-29T18:18:01.481Z,1.87
2023-01-29T18:45:24.278Z,1.86
2023-01-29T19:05:30.349Z,1.71
2023-01-29T19:10:36.041Z,1.67
2023-01-29T19:29:56.601Z,1.68
2023-01-29T19:35:00.459Z,1.70
2023-01-29T19:40:07.162Z,1.73
2023-01-29T19:45:12.595Z,1.80
2023-01-29T19:57:33.355Z,1.78
2023-01-29T20:02:40.848Z,1.78
2023-01-29T20:08:43.252Z,1.67
2023-01-29T20:13:53.349Z,1.66
2023-01-29T20:19:14.398Z,1.67
2023-01-29T20:24:24.438Z,1.73
2023-01-29T20:29:31.365Z,1.68
2023-01-29T20:34:38.439Z,1.67
2023-01-29T20:39:45.880Z,1.68
2023-01-29T20:44:53.045Z,1.64
2023-01-29T20:50:00.142Z,1.62
2023-01-29T20:55:57.502Z,1.65
2023-01-29T21:01:53.592Z,1.65
2023-01-29T21:14:19.602Z,1.74
2023-01-29T21:19:23.302Z,1.76
2023-01-29T21:28:54.502Z,1.80
2023-01-29T21:33:58.732Z,1.83
2023-01-29T21:39:25.407Z,1.85
2023-01-29T21:44:33.514Z,1.90
2023-01-29T21:49:46.124Z,1.91
2023-01-29T21:54:54.351Z,1.94
2023-01-29T22:00:02.124Z,1.94
2023-01-29T22:05:18.816Z,1.96
2023-01-29T22:10:24.556Z,1.99
2023-01-29T22:15:30.973Z,1.95
2023-01-29T22:20:37.492Z,1.94
2023-01-29T22:25:41.433Z,1.98
2023-01-29T22:30:47.343Z,1.93
2023-01-29T22:35:54.889Z,1.98
2023-01-29T22:41:01.483Z,2.00
2023-01-29T22:46:09.442Z,1.97
2023-01-29T22:51:14.155Z,2.00
2023-01-29T22:56:20.920Z,2.01
2023-01-29T23:01:32.198Z,1.97
2023-01-29T23:06:35.986Z,1.91
2023-01-29T23:11:40.109Z,1.90
2023-01-29T23:16:43.851Z,1.90
2023-01-29T23:21:47.900Z,1.90
2023-01-29T23:27:10.078Z,1.90
2023-01-29T23:32:18.524Z,1.93
2023-01-29T23:37:22.160Z,1.91
2023-01-29T23:42:26.112Z,1.90
2023-01-29T23:47:29.864Z,1.85
2023-01-29T23:52:33.435Z,1.80
2023-01-29T23:57:37.161Z,1.75
